Barrow, AK

4:31 PM AKST on November 24, 2014 (GMT -0900)
Nuiqsut | Change Station
CLOSE
Current Station
Airport
Location: Nuiqsut,
Elevation: 39 ft
Nearby Weather Stations

Elev 39 ft 70.21 °N, 150.99 °W | Updated 38 minutes ago

Light Snow
Light Snow Mist
-5 °F
Feels Like -24 °F
N
12
Wind Variable Wind from SW

Today
High -- | Low -- °F
--% Chance of Precip.
Yesterday
High -- | Low -- °F
Precip. -- in
12:18 PM 1:23 PM
Waxing Crescent, 8% visible
Pressure 29.92 in
Visibility 4.0 miles
Clouds Overcast 2200 ft
Windchill -24 °F
Dew Point -9 °F
Humidity 83%
Rainfall 0.00 in
Snow Depth Not available.
UV 0 out of 12
Pollen Not available.
Air Quality Not available.
Flu Activity Not available.
METAR PAQT 250053Z AUTO 23010KT 4SM -SN BR OVC022 M21/M23 A2991 RMK SLP131 P0000 T12061228 TSNO VIA AUTODIAL

More Conditions Fewer Conditions

Pressure 29.92 in
Visibility 4.0 miles
Clouds Overcast 2200 ft
Windchill -24 °F
Dew Point -9 °F
Humidity 83%
Rainfall 0.00 in
Snow Depth Not available.
UV 0 out of 12
Pollen Not available.
Air Quality Not available.
Flu Activity Not available.
METAR PAQT 250053Z AUTO 23010KT 4SM -SN BR OVC022 M21/M23 A2991 RMK SLP131 P0000 T12061228 TSNO VIA AUTODIAL

More Conditions Fewer Conditions

10-Day Weather Forecast

Almanac

Astronomy

Nov. 24, 2014 Rise Set
Actual Time
Civil Twilight
Nautical Twilight
Astronomical Twilight
Moon
Length of Visible Light
Length of Day
Tomorrow will be .
, % of the Moon is Illuminated

Today's Extremes

State Highs State Lows

Community

WunderPhotos

Upload Photos

1,773,457 photos uploaded!

WunderBlogs® & News

Nearby

Air Quality

  Air Quality AQ Index Pollutant
Not available.

Snow Depth

Station Depth Elevation

Earthquake Activity

City Distance Mag. Time & Date
Minimum magnitude displayed is 2.5.

Coastal Water Temperatures

Place Temperature

Nearby Weather Stations